createdAt,value
2018-08-18T00:00:17.444Z,17.08
2018-08-18T00:02:46.173Z,17.07
2018-08-18T00:05:15.641Z,17.08
2018-08-18T00:07:44.862Z,17.02
2018-08-18T00:10:15.890Z,16.96
2018-08-18T00:12:44.829Z,16.95
2018-08-18T00:15:13.643Z,16.96
2018-08-18T00:17:42.421Z,17.01
2018-08-18T00:20:14.888Z,16.97
2018-08-18T00:22:43.440Z,17.02
2018-08-18T00:25:12.375Z,17.07
2018-08-18T00:27:41.043Z,17.07
2018-08-18T00:30:15.992Z,17.13
2018-08-18T00:32:45.080Z,17.10
2018-08-18T00:35:13.796Z,17.19
2018-08-18T00:37:42.471Z,17.19
2018-08-18T00:40:11.977Z,17.23
2018-08-18T00:42:41.400Z,17.21
2018-08-18T00:45:11.803Z,17.01
2018-08-18T00:47:41.013Z,16.79
2018-08-18T00:50:10.620Z,16.65
2018-08-18T00:52:39.608Z,16.61
2018-08-18T00:55:08.514Z,16.51
2018-08-18T00:57:37.389Z,16.50
2018-08-18T01:00:06.807Z,16.44
2018-08-18T01:02:35.733Z,16.43
2018-08-18T01:05:05.005Z,16.35
2018-08-18T01:07:33.720Z,16.36
2018-08-18T01:10:02.967Z,16.38
2018-08-18T01:12:31.946Z,16.39
2018-08-18T01:15:00.413Z,16.36
2018-08-18T01:17:29.286Z,16.29
2018-08-18T01:19:59.093Z,16.18
2018-08-18T01:22:27.756Z,16.10
2018-08-18T01:24:56.466Z,16.05
2018-08-18T01:27:25.096Z,16.06
2018-08-18T01:30:01.172Z,16.04
2018-08-18T01:32:32.997Z,16.05
2018-08-18T01:35:01.683Z,16.12
2018-08-18T01:37:32.528Z,16.15
2018-08-18T01:40:01.503Z,16.23
2018-08-18T01:42:32.594Z,16.21
2018-08-18T01:45:01.234Z,16.18
2018-08-18T01:47:30.778Z,16.11
2018-08-18T01:50:04.381Z,16.09
2018-08-18T01:52:33.829Z,16.18
2018-08-18T01:55:02.533Z,16.18
2018-08-18T01:57:31.491Z,16.16
2018-08-18T02:00:05.252Z,16.23
2018-08-18T02:02:34.261Z,16.28
2018-08-18T02:05:12.533Z,16.28
2018-08-18T02:07:41.316Z,16.32
2018-08-18T02:10:11.083Z,16.28
2018-08-18T02:12:40.869Z,16.31
2018-08-18T02:15:09.558Z,16.30
2018-08-18T02:17:38.890Z,16.20
2018-08-18T02:20:09.220Z,16.13
2018-08-18T02:22:37.885Z,16.07
2018-08-18T02:25:07.061Z,16.02
2018-08-18T02:27:35.969Z,15.96
2018-08-18T02:30:23.733Z,15.90
2018-08-18T02:32:52.397Z,15.92
2018-08-18T02:35:23.587Z,15.95
2018-08-18T02:37:52.352Z,15.97
2018-08-18T02:40:21.080Z,15.94
2018-08-18T02:42:49.820Z,15.86
2018-08-18T02:45:18.586Z,15.89
2018-08-18T02:47:47.413Z,15.61
2018-08-18T02:50:16.028Z,15.52
2018-08-18T02:52:45.438Z,15.51
2018-08-18T02:55:14.093Z,15.50
2018-08-18T02:57:44.760Z,15.28
2018-08-18T03:00:23.683Z,15.18
2018-08-18T03:02:52.494Z,15.15
2018-08-18T03:05:21.404Z,15.11
2018-08-18T03:07:51.627Z,15.08
2018-08-18T03:10:27.129Z,15.04
2018-08-18T03:12:59.325Z,15.08
2018-08-18T03:16:05.665Z,15.08
2018-08-18T03:18:42.261Z,15.06
2018-08-18T03:21:11.141Z,15.08
2018-08-18T03:23:50.013Z,15.08
2018-08-18T03:26:21.343Z,15.11
2018-08-18T03:28:51.100Z,15.17
2018-08-18T03:31:20.116Z,15.36
2018-08-18T03:33:51.329Z,15.56
2018-08-18T03:36:35.533Z,15.79
2018-08-18T03:39:05.946Z,16.10
2018-08-18T03:41:34.609Z,16.38
2018-08-18T03:44:03.564Z,16.58
2018-08-18T03:46:32.258Z,16.81
2018-08-18T03:49:00.932Z,17.01
2018-08-18T03:51:34.736Z,17.15
2018-08-18T03:54:03.580Z,17.22
2018-08-18T03:56:32.257Z,17.28
2018-08-18T03:59:01.706Z,17.29
2018-08-18T04:01:40.508Z,17.30
2018-08-18T04:04:10.411Z,17.32
2018-08-18T04:06:41.092Z,17.33
2018-08-18T04:09:13.363Z,17.31
2018-08-18T04:11:41.980Z,17.28
2018-08-18T04:14:10.838Z,17.27
2018-08-18T04:16:45.301Z,17.30
2018-08-18T04:19:14.701Z,17.31
2018-08-18T04:21:43.417Z,17.33
2018-08-18T04:24:11.977Z,17.32
2018-08-18T04:26:40.865Z,17.34
2018-08-18T04:29:09.585Z,17.33
2018-08-18T04:31:38.760Z,17.34
2018-08-18T04:34:08.625Z,17.35
2018-08-18T04:36:37.287Z,17.34
2018-08-18T04:39:08.408Z,17.36
2018-08-18T04:41:37.287Z,17.39
2018-08-18T04:44:06.435Z,17.43
2018-08-18T04:46:35.332Z,17.46
2018-08-18T04:49:04.529Z,17.50
2018-08-18T04:51:33.259Z,17.57
2018-08-18T04:54:02.115Z,17.69
2018-08-18T04:56:31.055Z,17.84
2018-08-18T04:58:59.713Z,17.94
2018-08-18T05:01:29.538Z,18.09
2018-08-18T05:04:09.008Z,18.17
2018-08-18T05:06:40.789Z,18.23
2018-08-18T05:09:12.189Z,18.27
2018-08-18T05:11:40.959Z,18.31
2018-08-18T05:14:09.682Z,18.34
2018-08-18T05:16:38.325Z,18.39
2018-08-18T05:19:07.075Z,18.41
2018-08-18T05:21:35.784Z,18.45
2018-08-18T05:24:20.383Z,18.50
2018-08-18T05:26:49.540Z,18.56
2018-08-18T05:29:18.278Z,18.61
2018-08-18T05:31:48.102Z,18.69
2018-08-18T05:34:17.196Z,18.75
2018-08-18T05:36:46.281Z,18.83
2018-08-18T05:39:15.206Z,18.88
2018-08-18T05:41:43.888Z,18.94
2018-08-18T05:44:12.707Z,18.99
2018-08-18T05:46:41.428Z,19.02
2018-08-18T05:49:14.361Z,19.09
2018-08-18T05:51:45.225Z,19.17
2018-08-18T05:54:15.317Z,19.33
2018-08-18T05:56:45.353Z,19.36
2018-08-18T05:59:13.948Z,19.43
2018-08-18T06:01:43.068Z,19.50
2018-08-18T06:04:16.037Z,19.62
2018-08-18T06:06:45.607Z,19.75
2018-08-18T06:09:15.448Z,19.85
2018-08-18T06:11:44.379Z,19.98
2018-08-18T06:14:13.833Z,20.07
2018-08-18T06:16:43.853Z,20.13
2018-08-18T06:19:12.491Z,20.09
2018-08-18T06:21:41.347Z,20.14
2018-08-18T06:24:10.084Z,20.22
2018-08-18T06:26:39.060Z,20.35
2018-08-18T06:29:07.742Z,20.45
2018-08-18T06:31:50.318Z,20.54
2018-08-18T06:34:19.008Z,20.75
2018-08-18T06:36:47.712Z,20.81
2018-08-18T06:39:16.393Z,21.01
2018-08-18T06:41:45.201Z,21.19
2018-08-18T06:44:14.554Z,21.26
2018-08-18T06:46:43.345Z,21.42
2018-08-18T06:49:12.119Z,21.54
2018-08-18T06:51:40.814Z,21.81
2018-08-18T06:54:09.705Z,22.00
2018-08-18T06:56:38.272Z,21.97
2018-08-18T06:59:09.610Z,22.04
2018-08-18T07:01:38.699Z,22.16
2018-08-18T07:04:13.461Z,22.19
2018-08-18T07:06:42.637Z,22.23
2018-08-18T07:09:11.428Z,22.22
2018-08-18T07:11:43.374Z,22.22
2018-08-18T07:14:12.210Z,22.16
2018-08-18T07:16:41.551Z,22.06
2018-08-18T07:19:10.300Z,22.06
2018-08-18T07:21:38.972Z,22.03
2018-08-18T07:24:07.585Z,22.06
2018-08-18T07:26:36.290Z,22.12
2018-08-18T07:29:05.183Z,22.20
2018-08-18T07:31:34.645Z,22.34
2018-08-18T07:34:09.820Z,22.44
2018-08-18T07:36:38.471Z,22.53
2018-08-18T07:39:08.330Z,22.66
2018-08-18T07:41:36.981Z,22.84
2018-08-18T07:44:05.665Z,23.01
2018-08-18T07:46:34.570Z,23.17
2018-08-18T07:49:04.381Z,23.25
2018-08-18T07:51:33.086Z,23.55
2018-08-18T07:54:01.689Z,23.53
2018-08-18T07:56:30.466Z,23.53
2018-08-18T07:58:59.460Z,23.70
2018-08-18T08:01:28.172Z,23.95
2018-08-18T08:03:57.927Z,24.03
2018-08-18T08:06:26.630Z,24.05
2018-08-18T08:08:55.388Z,24.11
2018-08-18T08:11:25.526Z,24.15
2018-08-18T08:13:54.293Z,24.14
2018-08-18T08:16:23.219Z,24.35
2018-08-18T08:18:52.603Z,24.56
2018-08-18T08:21:21.421Z,24.55
2018-08-18T08:23:51.200Z,24.58
2018-08-18T08:26:19.814Z,24.63
2018-08-18T08:28:48.726Z,24.77
2018-08-18T08:31:18.455Z,24.88
2018-08-18T08:33:47.145Z,24.88
2018-08-18T08:36:17.310Z,24.88
2018-08-18T08:38:54.199Z,24.82
2018-08-18T08:41:24.852Z,24.77
2018-08-18T08:43:53.781Z,24.89
2018-08-18T08:46:22.677Z,25.14
2018-08-18T08:48:56.769Z,25.27
2018-08-18T08:51:26.157Z,25.47
2018-08-18T08:53:56.139Z,25.54
2018-08-18T08:56:29.739Z,25.50
2018-08-18T08:58:58.647Z,25.37
2018-08-18T09:01:27.389Z,25.49
2018-08-18T09:03:56.022Z,25.51
2018-08-18T09:06:24.808Z,25.54
2018-08-18T09:08:58.425Z,25.58
2018-08-18T09:11:28.492Z,25.69
2018-08-18T09:14:04.898Z,25.64
2018-08-18T09:16:34.819Z,25.57
2018-08-18T09:19:03.534Z,25.47
2018-08-18T09:21:40.314Z,25.42
2018-08-18T09:24:09.948Z,25.34
2018-08-18T09:26:43.786Z,25.34
2018-08-18T09:29:14.243Z,25.45
2018-08-18T09:31:43.818Z,25.42
2018-08-18T09:34:12.641Z,25.53
2018-08-18T09:36:41.958Z,25.67
2018-08-18T09:39:17.290Z,25.69
2018-08-18T09:41:46.365Z,25.66
2018-08-18T09:44:20.192Z,25.63
2018-08-18T09:46:48.788Z,25.59
2018-08-18T09:49:17.409Z,25.61
2018-08-18T09:51:46.238Z,25.55
2018-08-18T09:54:15.132Z,25.62
2018-08-18T09:56:43.858Z,25.73
2018-08-18T09:59:12.950Z,25.81
2018-08-18T10:01:41.847Z,25.91
2018-08-18T10:04:10.557Z,25.94
2018-08-18T10:06:39.486Z,25.98
2018-08-18T10:09:09.459Z,25.98
2018-08-18T10:11:38.745Z,25.88
2018-08-18T10:14:07.966Z,25.85
2018-08-18T10:16:37.025Z,25.93
2018-08-18T10:19:05.980Z,25.99
2018-08-18T10:21:34.797Z,26.03
2018-08-18T10:24:03.853Z,26.14
2018-08-18T10:26:32.524Z,26.25
2018-08-18T10:29:13.485Z,26.17
2018-08-18T10:31:52.415Z,25.99
2018-08-18T10:34:23.277Z,26.03
2018-08-18T10:36:56.310Z,26.00
2018-08-18T10:39:25.078Z,25.94
2018-08-18T10:42:20.245Z,25.91
2018-08-18T10:44:58.250Z,25.90
2018-08-18T10:47:26.910Z,25.75
2018-08-18T10:50:06.890Z,25.72
2018-08-18T10:52:46.724Z,25.72
2018-08-18T10:55:16.729Z,25.75
2018-08-18T10:57:59.432Z,25.79
2018-08-18T11:00:29.673Z,25.93
2018-08-18T11:03:00.901Z,26.03
2018-08-18T11:05:30.331Z,26.17
2018-08-18T11:08:04.439Z,26.24
2018-08-18T11:10:34.868Z,26.34
2018-08-18T11:13:03.676Z,26.31
2018-08-18T11:15:32.341Z,26.45
2018-08-18T11:18:01.353Z,26.36
2018-08-18T11:20:31.456Z,26.32
2018-08-18T11:23:06.899Z,26.24
2018-08-18T11:25:38.721Z,26.18
2018-08-18T11:28:08.576Z,25.97
2018-08-18T11:30:38.419Z,25.86
2018-08-18T11:33:07.473Z,25.66
2018-08-18T11:35:36.497Z,25.42
2018-08-18T11:38:08.711Z,25.26
2018-08-18T11:40:37.453Z,25.13
2018-08-18T11:43:09.097Z,24.99
2018-08-18T11:45:39.796Z,24.87
2018-08-18T11:48:20.462Z,24.85
2018-08-18T11:50:50.173Z,24.86
2018-08-18T11:53:18.953Z,24.89
2018-08-18T11:55:47.807Z,24.86
2018-08-18T11:58:17.848Z,24.80
2018-08-18T12:00:50.080Z,24.77
2018-08-18T12:03:21.761Z,24.79
2018-08-18T12:05:54.344Z,24.74
2018-08-18T12:08:25.457Z,24.68
2018-08-18T12:10:56.745Z,24.63
2018-08-18T12:13:31.200Z,24.56
2018-08-18T12:16:12.380Z,24.53
2018-08-18T12:18:42.410Z,24.55
2018-08-18T12:21:11.783Z,24.52
2018-08-18T12:23:41.957Z,24.45
2018-08-18T12:26:13.734Z,24.28
2018-08-18T12:28:45.241Z,24.20
2018-08-18T12:31:16.712Z,24.21
2018-08-18T12:33:45.535Z,24.18
2018-08-18T12:36:14.357Z,24.18
2018-08-18T12:38:44.537Z,24.20
2018-08-18T12:41:13.687Z,24.32
2018-08-18T12:43:45.252Z,24.41
2018-08-18T12:46:16.260Z,24.66
2018-08-18T12:48:46.231Z,24.89
2018-08-18T12:51:16.098Z,25.10
2018-08-18T12:53:53.189Z,25.42
2018-08-18T12:56:27.847Z,26.02
2018-08-18T12:58:56.732Z,26.43
2018-08-18T13:01:40.844Z,27.18
2018-08-18T13:04:11.778Z,27.83
2018-08-18T13:06:55.032Z,28.59
2018-08-18T13:09:26.694Z,29.53
2018-08-18T13:11:56.792Z,30.05
2018-08-18T13:14:27.178Z,30.65
2018-08-18T13:16:55.959Z,31.31
2018-08-18T13:19:27.576Z,31.48
2018-08-18T13:21:56.287Z,31.80
2018-08-18T13:24:25.070Z,32.40
2018-08-18T13:26:53.852Z,32.73
2018-08-18T13:29:22.533Z,32.54
2018-08-18T13:31:51.142Z,32.38
2018-08-18T13:34:19.874Z,32.70
2018-08-18T13:36:48.682Z,33.23
2018-08-18T13:39:18.865Z,33.65
2018-08-18T13:41:48.680Z,33.81
2018-08-18T13:44:26.406Z,33.18
2018-08-18T13:46:55.164Z,33.26
2018-08-18T13:49:25.345Z,33.83
2018-08-18T13:51:54.115Z,34.46
2018-08-18T13:54:22.857Z,34.50
2018-08-18T13:56:51.574Z,35.31
2018-08-18T13:59:45.304Z,35.73
2018-08-18T14:02:13.969Z,36.03
2018-08-18T14:04:43.496Z,36.17
2018-08-18T14:07:12.917Z,36.11
2018-08-18T14:09:44.213Z,36.25
2018-08-18T14:12:17.253Z,36.12
2018-08-18T14:14:46.766Z,35.67
2018-08-18T14:17:16.465Z,35.75
2018-08-18T14:19:45.150Z,35.42
2018-08-18T14:22:14.610Z,35.08
2018-08-18T14:24:43.345Z,34.73
2018-08-18T14:27:15.997Z,34.66
2018-08-18T14:29:44.743Z,34.99
2018-08-18T14:32:18.270Z,34.35
2018-08-18T14:34:56.839Z,34.18
2018-08-18T14:37:25.508Z,33.74
2018-08-18T14:39:54.215Z,34.02
2018-08-18T14:42:22.908Z,34.33
2018-08-18T14:44:52.046Z,34.32
2018-08-18T14:47:20.629Z,34.65
2018-08-18T14:49:49.848Z,34.81
2018-08-18T14:52:18.514Z,34.88
2018-08-18T14:54:47.216Z,35.13
2018-08-18T14:57:15.973Z,35.49
2018-08-18T14:59:44.765Z,35.49
2018-08-18T15:02:14.082Z,35.81
2018-08-18T15:04:42.681Z,35.80
2018-08-18T15:07:11.357Z,35.55
2018-08-18T15:09:44.423Z,34.97
2018-08-18T15:12:13.246Z,34.70
2018-08-18T15:14:41.976Z,34.07
2018-08-18T15:17:10.836Z,33.96
2018-08-18T15:19:39.529Z,34.00
2018-08-18T15:22:09.884Z,34.41
2018-08-18T15:24:38.879Z,34.66
2018-08-18T15:27:07.643Z,34.73
2018-08-18T15:29:36.565Z,34.67
2018-08-18T15:32:06.277Z,34.37
2018-08-18T15:34:35.023Z,34.17
2018-08-18T15:37:03.941Z,34.23
2018-08-18T15:39:33.604Z,34.55
2018-08-18T15:42:02.428Z,34.58
2018-08-18T15:44:31.323Z,34.69
2018-08-18T15:47:00.261Z,34.45
2018-08-18T15:49:29.731Z,34.33
2018-08-18T15:51:58.732Z,34.41
2018-08-18T15:54:27.408Z,34.36
2018-08-18T15:56:57.005Z,34.33
2018-08-18T15:59:25.890Z,34.26
2018-08-18T16:01:54.601Z,34.16
2018-08-18T16:04:23.429Z,34.31
2018-08-18T16:06:52.134Z,34.09
2018-08-18T16:09:20.847Z,33.78
2018-08-18T16:11:49.635Z,34.07
2018-08-18T16:14:18.564Z,34.41
2018-08-18T16:16:57.489Z,34.52
2018-08-18T16:19:26.376Z,34.62
2018-08-18T16:21:55.121Z,34.40
2018-08-18T16:24:31.070Z,34.38
2018-08-18T16:27:00.845Z,33.99
2018-08-18T16:29:30.629Z,33.60
2018-08-18T16:32:16.753Z,33.63
2018-08-18T16:34:46.764Z,33.87
2018-08-18T16:37:15.894Z,34.04
2018-08-18T16:39:45.031Z,33.88
2018-08-18T16:42:14.724Z,33.58
2018-08-18T16:44:43.493Z,33.42
2018-08-18T16:47:12.290Z,33.31
2018-08-18T16:49:40.867Z,33.08
2018-08-18T16:52:09.572Z,32.87
2018-08-18T16:54:38.338Z,32.67
2018-08-18T16:57:06.977Z,32.30
2018-08-18T16:59:37.516Z,32.03
2018-08-18T17:02:09.388Z,31.92
2018-08-18T17:04:38.156Z,31.76
2018-08-18T17:07:13.614Z,31.69
2018-08-18T17:09:43.383Z,31.64
2018-08-18T17:12:23.200Z,31.60
2018-08-18T17:14:51.862Z,31.33
2018-08-18T17:17:22.778Z,31.19
2018-08-18T17:19:51.557Z,31.10
2018-08-18T17:22:20.169Z,31.01
2018-08-18T17:24:49.074Z,30.90
2018-08-18T17:27:17.722Z,30.66
2018-08-18T17:29:48.926Z,30.52
2018-08-18T17:32:17.699Z,30.30
2018-08-18T17:34:46.305Z,30.07
2018-08-18T17:37:16.113Z,29.83
2018-08-18T17:39:44.749Z,29.46
2018-08-18T17:42:13.586Z,29.11
2018-08-18T17:44:42.289Z,28.80
2018-08-18T17:47:11.772Z,28.46
2018-08-18T17:49:46.969Z,28.17
2018-08-18T17:52:15.684Z,27.92
2018-08-18T17:54:53.876Z,27.68
2018-08-18T17:57:22.535Z,27.41
2018-08-18T17:59:51.521Z,27.18
2018-08-18T18:02:20.255Z,26.96
2018-08-18T18:04:53.364Z,26.74
2018-08-18T18:07:22.627Z,26.56
2018-08-18T18:09:51.574Z,26.42
2018-08-18T18:12:25.530Z,26.23
2018-08-18T18:14:55.696Z,26.14
2018-08-18T18:17:25.007Z,26.02
2018-08-18T18:19:56.348Z,25.91
2018-08-18T18:22:26.011Z,25.79
2018-08-18T18:24:55.346Z,25.66
2018-08-18T18:27:24.681Z,25.54
2018-08-18T18:29:54.370Z,25.43
2018-08-18T18:32:24.499Z,25.33
2018-08-18T18:34:53.452Z,25.25
2018-08-18T18:37:22.584Z,25.09
2018-08-18T18:40:01.523Z,24.98
2018-08-18T18:42:30.330Z,24.88
2018-08-18T18:44:59.641Z,24.81
2018-08-18T18:47:29.124Z,24.70
2018-08-18T18:49:57.824Z,24.59
2018-08-18T18:52:26.534Z,24.45
2018-08-18T18:54:57.965Z,24.35
2018-08-18T18:57:28.029Z,24.23
2018-08-18T19:00:00.591Z,24.16
2018-08-18T19:02:37.591Z,24.11
2018-08-18T19:05:16.937Z,24.09
2018-08-18T19:07:47.510Z,24.06
2018-08-18T19:10:17.318Z,24.01
2018-08-18T19:12:48.041Z,23.91
2018-08-18T19:15:16.678Z,23.81
2018-08-18T19:17:45.300Z,23.74
2018-08-18T19:20:20.879Z,23.69
2018-08-18T19:22:50.798Z,23.63
2018-08-18T19:25:19.437Z,23.59
2018-08-18T19:27:48.121Z,23.53
2018-08-18T19:30:16.800Z,23.48
2018-08-18T19:32:45.779Z,23.32
2018-08-18T19:35:14.401Z,23.15
2018-08-18T19:37:48.559Z,23.02
2018-08-18T19:40:17.269Z,22.88
2018-08-18T19:42:45.913Z,22.69
2018-08-18T19:45:14.669Z,22.39
2018-08-18T19:47:44.051Z,22.21
2018-08-18T19:50:12.885Z,22.08
2018-08-18T19:52:41.989Z,22.02
2018-08-18T19:55:12.473Z,21.88
2018-08-18T19:57:41.735Z,21.82
2018-08-18T20:00:18.029Z,21.86
2018-08-18T20:03:17.073Z,21.91
2018-08-18T20:05:45.967Z,21.84
2018-08-18T20:08:21.337Z,21.78
2018-08-18T20:10:58.805Z,21.82
2018-08-18T20:13:28.991Z,21.79
2018-08-18T20:15:59.225Z,21.72
2018-08-18T20:18:28.008Z,21.68
2018-08-18T20:20:58.733Z,21.70
2018-08-18T20:23:27.493Z,21.72
2018-08-18T20:25:56.200Z,21.71
2018-08-18T20:28:25.530Z,21.69
2018-08-18T20:30:54.216Z,21.58
2018-08-18T20:33:22.797Z,21.57
2018-08-18T20:35:51.585Z,21.61
2018-08-18T20:38:20.268Z,21.59
2018-08-18T20:40:49.401Z,21.59
2018-08-18T20:43:18.064Z,21.53
2018-08-18T20:45:48.961Z,21.49
2018-08-18T20:48:19.599Z,21.44
2018-08-18T20:50:48.854Z,21.29
2018-08-18T20:53:18.104Z,21.07
2018-08-18T20:55:53.596Z,20.83
2018-08-18T20:58:22.498Z,20.68
2018-08-18T21:00:51.281Z,20.60
2018-08-18T21:03:20.037Z,20.54
2018-08-18T21:05:48.706Z,20.47
2018-08-18T21:08:20.324Z,20.45
2018-08-18T21:10:49.585Z,20.51
2018-08-18T21:13:18.287Z,20.47
2018-08-18T21:15:46.998Z,20.34
2018-08-18T21:18:19.809Z,20.23
2018-08-18T21:20:49.305Z,20.15
2018-08-18T21:23:18.833Z,20.19
2018-08-18T21:25:49.600Z,20.27
2018-08-18T21:28:19.309Z,20.25
2018-08-18T21:30:48.474Z,20.23
2018-08-18T21:33:17.134Z,20.23
2018-08-18T21:35:47.012Z,20.21
2018-08-18T21:38:15.625Z,20.13
2018-08-18T21:40:44.468Z,20.06
2018-08-18T21:43:24.289Z,19.95
2018-08-18T21:45:53.906Z,19.84
2018-08-18T21:48:32.414Z,19.76
2018-08-18T21:51:01.273Z,19.69
2018-08-18T21:53:30.024Z,19.68
2018-08-18T21:56:00.130Z,19.69
2018-08-18T21:58:28.865Z,19.64
2018-08-18T22:01:29.472Z,19.43
2018-08-18T22:03:58.310Z,19.29
2018-08-18T22:06:27.021Z,19.23
2018-08-18T22:09:09.762Z,19.17
2018-08-18T22:11:38.417Z,19.14
2018-08-18T22:14:07.721Z,19.13
2018-08-18T22:16:37.786Z,19.02
2018-08-18T22:19:06.500Z,18.95
2018-08-18T22:21:35.205Z,18.99
2018-08-18T22:24:03.933Z,18.93
2018-08-18T22:26:32.540Z,18.88
2018-08-18T22:29:05.145Z,18.86
2018-08-18T22:31:34.421Z,18.81
2018-08-18T22:34:04.298Z,18.82
2018-08-18T22:36:35.242Z,18.76
2018-08-18T22:39:05.182Z,18.74
2018-08-18T22:41:34.298Z,18.65
2018-08-18T22:44:02.981Z,18.57
2018-08-18T22:46:31.899Z,18.54
2018-08-18T22:49:01.613Z,18.54
2018-08-18T22:51:30.301Z,18.61
2018-08-18T22:53:58.957Z,18.61
2018-08-18T22:56:32.813Z,18.68
2018-08-18T22:59:02.475Z,18.67
2018-08-18T23:01:31.879Z,18.56
2018-08-18T23:04:00.914Z,18.49
2018-08-18T23:06:32.844Z,18.54
2018-08-18T23:09:01.520Z,18.49
2018-08-18T23:11:30.149Z,18.49
2018-08-18T23:13:58.709Z,18.48
2018-08-18T23:16:27.965Z,18.47
2018-08-18T23:18:56.756Z,18.45
2018-08-18T23:21:31.341Z,18.39
2018-08-18T23:24:02.769Z,18.37
2018-08-18T23:26:32.430Z,18.33
2018-08-18T23:29:01.387Z,18.33
2018-08-18T23:31:30.067Z,18.31
2018-08-18T23:33:58.680Z,18.26
2018-08-18T23:36:27.258Z,18.23
2018-08-18T23:38:58.886Z,18.20
2018-08-18T23:41:27.657Z,18.17
2018-08-18T23:43:56.269Z,18.22
2018-08-18T23:46:24.966Z,18.27
2018-08-18T23:48:53.665Z,18.29
2018-08-18T23:51:27.288Z,18.29
2018-08-18T23:53:55.858Z,18.26
2018-08-18T23:56:28.680Z,18.22
2018-08-18T23:58:58.821Z,18.19
